Time;durP1;ratioP1;P1;durP2;ratioP2;P2;SDS_P1;SDS_P2;PMS_P1;PMS_P2;Temp;Humidity;BMP_temperature;BMP_pressure;BME280_temperature;BME280_humidity;BME280_pressure;Samples;Min_cycle;Max_cycle;Signal;HPM_P1;HPM_P2
2023/05/05 00:00:50;;;;;;;0.60;0.40;;;19.50;72.50;;;;;;6214838;23;20008;-67
2023/05/05 00:03:17;;;;;;;1.80;0.63;;;19.50;72.60;;;;;;6216221;23;20420;-68
2023/05/05 00:05:42;;;;;;;0.73;0.40;;;19.50;72.60;;;;;;6189639;23;20023;-67
2023/05/05 00:08:08;;;;;;;1.15;0.50;;;19.50;72.50;;;;;;6214969;23;20004;-68
2023/05/05 00:10:34;;;;;;;0.55;0.40;;;19.40;72.50;;;;;;6214776;23;20001;-68
2023/05/05 00:12:59;;;;;;;0.90;0.50;;;19.50;72.70;;;;;;6216259;23;20004;-68
2023/05/05 00:15:26;;;;;;;0.77;0.20;;;19.50;72.70;;;;;;6216273;23;20004;-68
2023/05/05 00:17:51;;;;;;;0.82;0.40;;;19.50;72.60;;;;;;6216039;23;19996;-68
2023/05/05 00:20:17;;;;;;;1.92;0.60;;;19.50;72.70;;;;;;6216167;23;20004;-68
2023/05/05 00:22:43;;;;;;;3.00;0.32;;;19.50;72.80;;;;;;6214818;23;20001;-68
2023/05/05 00:25:08;;;;;;;1.05;0.38;;;19.50;72.80;;;;;;6214361;23;20015;-68
2023/05/05 00:27:34;;;;;;;0.93;0.50;;;19.50;72.80;;;;;;6216265;23;20051;-68
2023/05/05 00:30:00;;;;;;;0.63;0.32;;;19.50;72.80;;;;;;6215944;23;20051;-68
2023/05/05 00:32:26;;;;;;;1.20;0.60;;;19.50;72.90;;;;;;6216261;23;20004;-68
2023/05/05 00:34:52;;;;;;;0.43;0.43;;;19.40;72.80;;;;;;6214285;23;20005;-68
2023/05/05 00:37:17;;;;;;;1.35;0.43;;;19.40;72.80;;;;;;6215846;23;20544;-67
2023/05/05 00:39:43;;;;;;;1.48;0.60;;;19.40;72.90;;;;;;6214054;23;19996;-68
2023/05/05 00:42:09;;;;;;;0.68;0.55;;;19.40;72.80;;;;;;6215904;23;19993;-67
2023/05/05 00:44:39;;;;;;;2.78;0.50;;;19.40;73.00;;;;;;6215977;23;19989;-68
2023/05/05 00:47:05;;;;;;;0.82;0.45;;;19.40;73.00;;;;;;6189450;23;19996;-68
2023/05/05 00:49:31;;;;;;;1.05;0.50;;;19.40;73.10;;;;;;6215865;23;20059;-67
2023/05/05 00:51:57;;;;;;;0.95;0.50;;;19.40;73.20;;;;;;6214340;23;20000;-67
2023/05/05 00:54:23;;;;;;;1.25;0.57;;;19.40;73.10;;;;;;6215771;23;20011;-68
2023/05/05 00:56:49;;;;;;;1.25;0.40;;;19.40;73.20;;;;;;6214538;23;20525;-68
2023/05/05 00:59:16;;;;;;;0.80;0.60;;;19.40;73.40;;;;;;6215765;23;20086;-68
2023/05/05 01:01:42;;;;;;;0.68;0.30;;;19.40;73.30;;;;;;6189663;23;20031;-67
2023/05/05 01:04:07;;;;;;;1.65;0.50;;;19.40;73.50;;;;;;6214056;23;20007;-68
2023/05/05 01:06:47;;;;;;;1.92;0.50;;;19.40;73.40;;;;;;6215608;23;20032;-67
2023/05/05 01:09:31;;;;;;;1.17;0.60;;;19.40;73.40;;;;;;6190571;23;20107;-67
2023/05/05 01:12:18;;;;;;;1.23;0.60;;;19.40;73.40;;;;;;6215793;23;20005;-68
2023/05/05 01:15:11;;;;;;;0.98;0.40;;;19.40;73.40;;;;;;6215705;23;20442;-68
2023/05/05 01:17:40;;;;;;;3.60;0.73;;;19.40;73.60;;;;;;6208412;23;20356;-68
2023/05/05 01:20:20;;;;;;;0.75;0.40;;;19.40;73.60;;;;;;6214189;23;19997;-67
2023/05/05 01:22:48;;;;;;;1.92;0.40;;;19.30;73.50;;;;;;6214626;23;20037;-68
2023/05/05 01:25:30;;;;;;;1.50;0.43;;;19.40;73.70;;;;;;6214093;23;20075;-67
2023/05/05 01:28:05;;;;;;;1.10;0.52;;;19.30;73.60;;;;;;6214268;23;20001;-69
2023/05/05 01:30:45;;;;;;;0.88;0.50;;;19.40;73.70;;;;;;6215750;23;20004;-69
2023/05/05 01:33:13;;;;;;;1.77;0.40;;;19.30;73.70;;;;;;6214076;23;20005;-69
2023/05/05 01:35:44;;;;;;;2.17;0.50;;;19.30;73.70;;;;;;6189498;23;20004;-70
2023/05/05 01:38:18;;;;;;;1.48;0.82;;;19.30;73.70;;;;;;6213870;23;20009;-70
2023/05/05 01:41:11;;;;;;;1.40;0.32;;;19.30;73.60;;;;;;6189497;23;19997;-70
2023/05/05 01:43:37;;;;;;;0.93;0.45;;;19.30;73.60;;;;;;6211409;23;20005;-70
2023/05/05 01:46:03;;;;;;;0.68;0.40;;;19.30;73.70;;;;;;6189036;23;20425;-70
2023/05/05 01:48:28;;;;;;;1.27;0.50;;;19.30;73.70;;;;;;6213800;23;20438;-70
2023/05/05 01:50:54;;;;;;;0.77;0.57;;;19.30;73.70;;;;;;6214251;23;20011;-70
2023/05/05 01:53:20;;;;;;;0.85;0.52;;;19.30;73.70;;;;;;6213570;23;20004;-70
2023/05/05 01:55:46;;;;;;;1.20;0.50;;;19.30;73.70;;;;;;6213826;23;20028;-70
2023/05/05 01:58:12;;;;;;;1.08;0.50;;;19.30;73.80;;;;;;6188745;23;20341;-70
2023/05/05 02:00:37;;;;;;;1.25;0.60;;;19.30;73.80;;;;;;6189058;23;20001;-70
2023/05/05 02:03:03;;;;;;;0.85;0.43;;;19.30;73.80;;;;;;6213699;23;20001;-70
2023/05/05 02:05:29;;;;;;;1.48;0.70;;;19.30;74.80;;;;;;6188779;23;20020;-70
2023/05/05 02:07:56;;;;;;;1.30;0.30;;;19.30;73.80;;;;;;6213897;23;20008;-70
2023/05/05 02:10:22;;;;;;;0.28;0.20;;;19.30;74.90;;;;;;6215352;23;20028;-70
2023/05/05 02:12:48;;;;;;;0.85;0.45;;;19.30;73.90;;;;;;6189090;23;20005;-70
2023/05/05 02:15:13;;;;;;;2.13;0.50;;;19.30;73.90;;;;;;6213664;23;20001;-70
2023/05/05 02:17:42;;;;;;;1.33;0.52;;;19.30;73.90;;;;;;6188770;23;20333;-70
2023/05/05 02:20:12;;;;;;;0.95;0.30;;;19.30;74.00;;;;;;6213907;23;20032;-70
2023/05/05 02:22:37;;;;;;;1.15;0.32;;;19.30;74.00;;;;;;6188793;23;20000;-70
2023/05/05 02:25:03;;;;;;;1.83;0.65;;;19.30;74.00;;;;;;6213864;23;20035;-70
2023/05/05 02:27:29;;;;;;;0.70;0.40;;;19.30;74.10;;;;;;6215234;23;20004;-70
2023/05/05 02:29:58;;;;;;;0.75;0.52;;;19.30;74.20;;;;;;6188315;23;20036;-70
2023/05/05 02:32:32;;;;;;;1.20;0.75;;;19.30;75.20;;;;;;6188769;23;20355;-70
2023/05/05 02:35:02;;;;;;;1.40;0.57;;;19.30;74.30;;;;;;6189078;23;20054;-70
2023/05/05 02:37:29;;;;;;;1.02;0.40;;;19.30;74.30;;;;;;6189421;23;20138;-70
2023/05/05 02:40:03;;;;;;;1.00;0.30;;;19.30;74.20;;;;;;6213692;23;20742;-70
2023/05/05 02:42:33;;;;;;;0.88;0.40;;;19.30;74.40;;;;;;6189739;23;20001;-70
2023/05/05 02:45:00;;;;;;;0.65;0.40;;;19.30;74.50;;;;;;6188887;23;20000;-70
2023/05/05 02:47:35;;;;;;;1.55;0.40;;;19.30;74.50;;;;;;6213464;23;20058;-70
2023/05/05 02:50:02;;;;;;;0.90;0.50;;;19.30;74.50;;;;;;6215203;23;20004;-70
2023/05/05 02:52:28;;;;;;;0.77;0.57;;;19.30;74.60;;;;;;6213575;23;20005;-70
2023/05/05 02:54:53;;;;;;;1.05;0.57;;;19.30;75.70;;;;;;6215126;23;20012;-70
2023/05/05 02:57:19;;;;;;;0.93;0.45;;;19.30;74.60;;;;;;6215033;23;20016;-70
2023/05/05 03:00:05;;;;;;;0.52;0.30;;;19.30;74.60;;;;;;6188322;23;19999;-70
2023/05/05 03:02:57;;;;;;;1.10;0.52;;;19.30;74.70;;;;;;6214024;23;19996;-70
2023/05/05 03:05:23;;;;;;;0.75;0.50;;;19.20;74.70;;;;;;6211163;23;20023;-70
2023/05/05 03:08:04;;;;;;;1.23;0.40;;;19.30;74.70;;;;;;6190711;23;20032;-70
2023/05/05 03:10:33;;;;;;;0.85;0.60;;;19.20;74.80;;;;;;6215341;23;20004;-70
2023/05/05 03:12:59;;;;;;;1.33;0.68;;;19.30;74.90;;;;;;6191030;23;20433;-70
2023/05/05 03:15:30;;;;;;;1.42;0.73;;;19.20;74.80;;;;;;6215032;23;20012;-70
2023/05/05 03:17:56;;;;;;;0.98;0.50;;;19.20;74.80;;;;;;6190324;23;20103;-70
2023/05/05 03:20:22;;;;;;;0.98;0.63;;;19.20;74.90;;;;;;6190392;23;20001;-70
2023/05/05 03:22:47;;;;;;;2.28;0.45;;;19.20;74.90;;;;;;6190196;23;20001;-70
2023/05/05 03:25:13;;;;;;;0.85;0.40;;;19.20;75.00;;;;;;6190242;23;20310;-70
2023/05/05 03:27:39;;;;;;;2.03;0.60;;;19.20;75.00;;;;;;6216789;23;20047;-70
2023/05/05 03:30:06;;;;;;;1.60;0.63;;;19.20;75.00;;;;;;6189963;23;20008;-70
2023/05/05 03:32:31;;;;;;;1.13;0.50;;;19.20;75.20;;;;;;6215007;23;20008;-70
2023/05/05 03:34:57;;;;;;;0.68;0.52;;;19.20;75.10;;;;;;6216744;23;20443;-70
2023/05/05 03:37:23;;;;;;;0.70;0.40;;;19.20;75.20;;;;;;6216736;23;20071;-70
2023/05/05 03:39:48;;;;;;;0.98;0.88;;;19.20;75.20;;;;;;6216600;23;20291;-70
2023/05/05 03:42:14;;;;;;;0.95;0.43;;;19.20;75.20;;;;;;6216275;23;20068;-70
2023/05/05 03:44:40;;;;;;;1.35;0.45;;;19.20;75.20;;;;;;6215239;23;20320;-70
2023/05/05 03:47:05;;;;;;;1.00;0.60;;;19.20;75.30;;;;;;6216671;23;20321;-70
2023/05/05 03:49:31;;;;;;;2.35;0.50;;;19.20;75.20;;;;;;6216390;23;20409;-70
2023/05/05 03:51:56;;;;;;;0.55;0.35;;;19.20;75.30;;;;;;6216377;23;19996;-70
2023/05/05 03:54:22;;;;;;;0.98;0.55;;;19.20;75.40;;;;;;6214781;23;20004;-70
2023/05/05 03:56:47;;;;;;;0.50;0.30;;;19.20;75.40;;;;;;6216188;23;20011;-70
2023/05/05 03:59:13;;;;;;;0.80;0.45;;;19.20;75.50;;;;;;6216229;23;20364;-70
2023/05/05 04:01:39;;;;;;;1.75;0.40;;;19.20;75.60;;;;;;6216535;23;20425;-70
2023/05/05 04:04:04;;;;;;;0.90;0.43;;;19.20;75.60;;;;;;6216243;23;19996;-70
2023/05/05 04:06:30;;;;;;;1.55;0.55;;;19.20;75.70;;;;;;6216044;23;20020;-70
2023/05/05 04:08:56;;;;;;;1.08;0.40;;;19.20;75.70;;;;;;6216445;23;20071;-70
2023/05/05 04:11:22;;;;;;;1.17;0.52;;;19.20;75.70;;;;;;6216163;23;20035;-70
2023/05/05 04:13:48;;;;;;;1.30;0.70;;;19.20;75.80;;;;;;6216419;23;20016;-71
2023/05/05 04:16:14;;;;;;;1.77;0.50;;;19.20;75.80;;;;;;6216011;23;20540;-70
2023/05/05 04:18:40;;;;;;;3.58;0.43;;;19.20;75.90;;;;;;6215995;23;20413;-70
2023/05/05 04:21:06;;;;;;;1.75;0.30;;;19.20;75.90;;;;;;6216353;23;19997;-70
2023/05/05 04:23:31;;;;;;;1.38;0.35;;;19.20;75.90;;;;;;6216076;23;20050;-70
2023/05/05 04:25:57;;;;;;;0.75;0.30;;;19.20;76.00;;;;;;6216081;23;20004;-70
2023/05/05 04:28:23;;;;;;;0.47;0.38;;;19.10;76.00;;;;;;6216152;23;20005;-70
2023/05/05 04:30:48;;;;;;;0.68;0.40;;;19.20;76.00;;;;;;6214955;23;20286;-70
2023/05/05 04:33:14;;;;;;;1.88;0.50;;;19.20;76.00;;;;;;6214447;23;20007;-70
2023/05/05 04:35:40;;;;;;;0.75;0.40;;;19.20;76.00;;;;;;6215961;23;20401;-70
2023/05/05 04:38:05;;;;;;;1.77;0.40;;;19.20;76.00;;;;;;6216255;23;20001;-70
2023/05/05 04:40:31;;;;;;;2.30;0.70;;;19.10;75.90;;;;;;6215475;23;20007;-70
2023/05/05 04:42:56;;;;;;;1.88;0.60;;;19.10;76.00;;;;;;6216037;23;20001;-70
2023/05/05 04:45:22;;;;;;;1.95;0.70;;;19.20;76.00;;;;;;6215914;23;20001;-70
2023/05/05 04:47:48;;;;;;;1.70;0.43;;;19.20;76.00;;;;;;6216352;23;20047;-70
2023/05/05 04:50:13;;;;;;;0.77;0.40;;;19.10;75.90;;;;;;6214551;23;20005;-70
2023/05/05 04:52:39;;;;;;;1.58;0.50;;;19.20;76.00;;;;;;6215768;23;20333;-70
2023/05/05 04:55:05;;;;;;;0.40;0.40;;;19.20;75.90;;;;;;6215741;23;20004;-70
2023/05/05 04:57:31;;;;;;;0.77;0.40;;;19.20;76.00;;;;;;6216293;23;20005;-70
2023/05/05 04:59:58;;;;;;;0.73;0.38;;;19.20;76.00;;;;;;6215991;23;20071;-70
2023/05/05 05:02:24;;;;;;;1.15;0.40;;;19.10;75.90;;;;;;6215171;23;20046;-70
2023/05/05 05:04:50;;;;;;;1.17;0.65;;;19.20;75.90;;;;;;6215057;23;20127;-70
2023/05/05 05:07:15;;;;;;;1.67;0.50;;;19.20;76.00;;;;;;6215570;23;20016;-70
2023/05/05 05:09:41;;;;;;;0.82;0.50;;;19.10;76.00;;;;;;6215343;23;20000;-70
2023/05/05 05:12:08;;;;;;;2.05;0.50;;;19.10;76.00;;;;;;6214274;23;20029;-70
2023/05/05 05:14:37;;;;;;;5.88;0.70;;;19.10;75.90;;;;;;6215397;23;20455;-70
2023/05/05 05:17:03;;;;;;;1.52;0.50;;;19.20;75.10;;;;;;6215534;23;20005;-68
2023/05/05 05:19:29;;;;;;;3.35;0.50;;;19.10;73.70;;;;;;6213919;23;20380;-69
2023/05/05 05:21:55;;;;;;;0.63;0.40;;;19.10;73.70;;;;;;6215675;23;20004;-69
2023/05/05 05:24:20;;;;;;;1.90;0.60;;;19.10;73.60;;;;;;6215188;23;20352;-69
2023/05/05 05:26:46;;;;;;;1.73;0.75;;;19.10;73.50;;;;;;6215229;23;20000;-69
2023/05/05 05:29:11;;;;;;;6.63;1.17;;;19.00;73.20;;;;;;6215430;23;20004;-70
2023/05/05 05:31:38;;;;;;;4.82;1.13;;;19.00;72.90;;;;;;6215573;23;20004;-70
2023/05/05 05:34:04;;;;;;;6.07;1.65;;;18.90;72.50;;;;;;6213916;23;20341;-70
2023/05/05 05:36:30;;;;;;;5.53;1.33;;;18.90;72.30;;;;;;6215378;23;20004;-69
2023/05/05 05:38:56;;;;;;;5.50;1.45;;;18.90;72.30;;;;;;6215327;23;20071;-69
2023/05/05 05:41:21;;;;;;;6.30;1.65;;;18.80;72.00;;;;;;6213884;23;20078;-68
2023/05/05 05:43:47;;;;;;;6.43;1.30;;;18.80;71.90;;;;;;6215727;23;20004;-68
2023/05/05 05:46:13;;;;;;;4.90;1.48;;;18.80;71.70;;;;;;6215409;23;20070;-69
2023/05/05 05:48:38;;;;;;;11.35;2.50;;;18.80;71.60;;;;;;6214035;23;20008;-69
2023/05/05 05:51:04;;;;;;;6.95;1.65;;;18.70;72.00;;;;;;6214724;23;20388;-69
2023/05/05 05:53:29;;;;;;;6.03;1.65;;;18.70;71.40;;;;;;6214447;23;20054;-69
2023/05/05 05:55:55;;;;;;;7.22;1.50;;;18.70;71.40;;;;;;6214824;23;20008;-69
2023/05/05 05:58:21;;;;;;;8.40;1.95;;;18.70;71.20;;;;;;6214607;23;20433;-69
2023/05/05 06:00:47;;;;;;;7.07;1.63;;;18.70;71.30;;;;;;6214667;23;20024;-69
2023/05/05 06:03:13;;;;;;;9.20;2.30;;;18.70;71.30;;;;;;6214721;23;20072;-69
2023/05/05 06:05:39;;;;;;;8.82;2.25;;;18.70;71.30;;;;;;6214354;23;20094;-69
2023/05/05 06:08:04;;;;;;;7.78;1.73;;;18.70;71.20;;;;;;6214613;23;20009;-69
2023/05/05 06:10:30;;;;;;;10.63;1.58;;;18.70;71.10;;;;;;6214402;23;20015;-69
2023/05/05 06:12:55;;;;;;;12.77;2.38;;;18.60;71.20;;;;;;6214686;23;20043;-69
2023/05/05 06:15:21;;;;;;;10.40;2.30;;;18.60;71.10;;;;;;6214560;23;20000;-69
2023/05/05 06:17:47;;;;;;;7.93;1.98;;;18.60;71.10;;;;;;6214460;23;19997;-69
2023/05/05 06:20:12;;;;;;;7.25;2.03;;;18.60;71.10;;;;;;6213248;23;20001;-69
2023/05/05 06:22:38;;;;;;;10.05;2.20;;;18.60;71.20;;;;;;6213108;23;20070;-69
2023/05/05 06:25:04;;;;;;;9.05;2.35;;;18.60;71.40;;;;;;6214575;23;20012;-70
2023/05/05 06:27:30;;;;;;;12.90;2.45;;;18.60;71.20;;;;;;6214442;23;20004;-70
2023/05/05 06:29:56;;;;;;;10.48;1.95;;;18.60;71.30;;;;;;6213412;23;20005;-70
2023/05/05 06:32:21;;;;;;;7.43;1.70;;;18.60;71.50;;;;;;6211457;23;20071;-70
2023/05/05 06:34:47;;;;;;;9.82;2.00;;;18.50;71.70;;;;;;6213146;23;20001;-70
2023/05/05 06:37:13;;;;;;;13.27;2.42;;;18.60;72.00;;;;;;6211836;23;19997;-70
2023/05/05 06:39:39;;;;;;;10.98;2.92;;;18.50;72.00;;;;;;6213991;23;20001;-70
2023/05/05 06:42:04;;;;;;;9.32;2.17;;;18.50;71.90;;;;;;6215163;23;20148;-71
2023/05/05 06:44:30;;;;;;;7.72;1.73;;;18.50;71.80;;;;;;6215540;23;20004;-71
2023/05/05 06:46:56;;;;;;;15.48;2.83;;;18.50;71.80;;;;;;6214932;23;20004;-71
2023/05/05 06:49:21;;;;;;;9.50;2.45;;;18.50;71.80;;;;;;6216441;23;20004;-71
2023/05/05 06:51:47;;;;;;;10.75;2.15;;;18.50;72.00;;;;;;6216096;23;20344;-71
2023/05/05 06:54:13;;;;;;;10.57;2.58;;;18.50;71.90;;;;;;6214935;23;20347;-71
2023/05/05 06:56:38;;;;;;;11.35;2.40;;;18.40;71.80;;;;;;6216109;23;20001;-70
2023/05/05 06:59:04;;;;;;;9.05;1.95;;;18.40;72.00;;;;;;6216395;23;20023;-71
2023/05/05 07:01:29;;;;;;;11.27;2.70;;;18.40;72.00;;;;;;6216047;23;20499;-70
2023/05/05 07:03:55;;;;;;;11.43;2.38;;;18.40;72.00;;;;;;6214904;23;20001;-70
2023/05/05 07:06:21;;;;;;;14.05;3.08;;;18.40;72.10;;;;;;6215778;23;20020;-71
2023/05/05 07:08:47;;;;;;;11.32;2.50;;;18.40;72.00;;;;;;6216121;23;20028;-71
2023/05/05 07:11:12;;;;;;;11.95;2.47;;;18.40;72.00;;;;;;6216053;23;20001;-71
2023/05/05 07:13:38;;;;;;;13.77;2.70;;;18.40;71.80;;;;;;6189859;23;20008;-70
2023/05/05 07:16:04;;;;;;;11.82;2.95;;;18.40;71.90;;;;;;6216011;23;20500;-70
2023/05/05 07:18:30;;;;;;;10.50;2.47;;;18.40;72.00;;;;;;6216110;23;20075;-70
2023/05/05 07:20:55;;;;;;;12.82;3.05;;;18.30;71.90;;;;;;6216273;23;20039;-70
2023/05/05 07:23:21;;;;;;;10.40;2.10;;;18.30;71.90;;;;;;6216101;23;20027;-70
2023/05/05 07:25:47;;;;;;;15.30;2.97;;;18.30;72.10;;;;;;6214589;23;20068;-70
2023/05/05 07:28:13;;;;;;;9.95;2.80;;;18.30;72.10;;;;;;6215996;23;20412;-70
2023/05/05 07:30:38;;;;;;;13.25;3.35;;;18.30;72.20;;;;;;6215845;23;20079;-70
2023/05/05 07:33:04;;;;;;;14.57;2.72;;;18.30;72.20;;;;;;6215994;23;20109;-70
2023/05/05 07:35:29;;;;;;;11.32;2.38;;;18.20;72.20;;;;;;6215785;23;20071;-70
2023/05/05 07:37:55;;;;;;;11.52;2.67;;;18.30;72.10;;;;;;6215586;23;20000;-70
2023/05/05 07:40:21;;;;;;;12.07;2.47;;;18.20;72.10;;;;;;6216004;23;20004;-70
2023/05/05 07:42:47;;;;;;;11.18;2.50;;;18.30;72.00;;;;;;6215834;23;20071;-70
2023/05/05 07:45:12;;;;;;;11.57;2.58;;;18.20;72.00;;;;;;6215804;23;20075;-70
2023/05/05 07:47:39;;;;;;;10.00;2.22;;;18.30;72.20;;;;;;6215628;23;20000;-70
2023/05/05 07:50:05;;;;;;;12.90;2.67;;;18.30;72.10;;;;;;6215543;23;20004;-70
2023/05/05 07:52:31;;;;;;;10.88;2.42;;;18.20;72.00;;;;;;6189566;23;20356;-70
2023/05/05 07:54:57;;;;;;;15.60;3.00;;;18.20;72.00;;;;;;6215719;23;20069;-70
2023/05/05 07:57:22;;;;;;;9.45;2.78;;;18.20;71.60;;;;;;6215761;23;20452;-70
2023/05/05 07:59:48;;;;;;;16.10;2.53;;;18.20;71.60;;;;;;6215496;23;20004;-70
2023/05/05 08:02:13;;;;;;;15.32;2.45;;;18.20;71.60;;;;;;6215547;23;20318;-70
2023/05/05 08:04:39;;;;;;;13.60;2.47;;;18.20;71.30;;;;;;6215155;23;19996;-70
2023/05/05 08:07:05;;;;;;;9.40;2.35;;;18.20;71.30;;;;;;6214273;23;20003;-70
2023/05/05 08:09:31;;;;;;;8.75;2.13;;;18.20;71.30;;;;;;6215682;23;20001;-70
2023/05/05 08:11:56;;;;;;;13.75;2.58;;;18.20;71.20;;;;;;6215305;23;20055;-70
2023/05/05 08:14:22;;;;;;;10.57;2.78;;;18.20;71.30;;;;;;6215690;23;20055;-70
2023/05/05 08:16:48;;;;;;;10.05;2.00;;;18.20;71.30;;;;;;6213990;23;20004;-70
2023/05/05 08:19:13;;;;;;;11.55;2.95;;;18.20;71.20;;;;;;6213733;23;20425;-70
2023/05/05 08:21:39;;;;;;;10.20;2.22;;;18.20;71.20;;;;;;6215417;23;20004;-70
2023/05/05 08:24:05;;;;;;;11.02;2.58;;;18.20;71.30;;;;;;6215432;23;19997;-70
2023/05/05 08:26:30;;;;;;;10.57;2.15;;;18.20;71.30;;;;;;6215372;23;20149;-70
2023/05/05 08:28:59;;;;;;;12.70;2.90;;;18.20;71.40;;;;;;6215400;23;20005;-70
2023/05/05 08:31:26;;;;;;;15.70;2.70;;;18.10;71.30;;;;;;6215280;23;20012;-70
2023/05/05 08:33:52;;;;;;;11.98;2.63;;;18.20;71.50;;;;;;6215134;23;20000;-70
2023/05/05 08:36:18;;;;;;;12.45;2.53;;;18.10;71.30;;;;;;6188975;23;20004;-70
2023/05/05 08:38:43;;;;;;;9.88;2.20;;;18.10;71.30;;;;;;6213791;23;19997;-70
2023/05/05 08:41:09;;;;;;;14.50;2.72;;;18.20;71.30;;;;;;6215268;23;19997;-71
2023/05/05 08:43:35;;;;;;;11.52;2.78;;;18.20;71.30;;;;;;6213760;23;20548;-71
2023/05/05 08:46:01;;;;;;;12.52;2.70;;;18.10;71.40;;;;;;6215396;23;20391;-70
2023/05/05 08:48:27;;;;;;;11.63;2.33;;;18.10;71.20;;;;;;6213569;23;20001;-70
2023/05/05 08:50:58;;;;;;;7.65;2.03;;;18.10;71.20;;;;;;6215262;23;20001;-70
2023/05/05 08:53:47;;;;;;;8.98;2.15;;;18.20;71.30;;;;;;6188795;23;20072;-70
2023/05/05 08:56:14;;;;;;;13.13;2.38;;;18.10;71.10;;;;;;6213877;23;20005;-71
2023/05/05 08:58:40;;;;;;;10.07;2.05;;;18.10;71.20;;;;;;6213576;23;20000;-71
2023/05/05 09:01:06;;;;;;;9.95;2.53;;;18.10;71.20;;;;;;6188549;23;19996;-71
2023/05/05 09:03:32;;;;;;;11.13;2.25;;;18.10;71.20;;;;;;6213653;23;20001;-71
2023/05/05 09:05:58;;;;;;;9.07;1.90;;;18.10;71.30;;;;;;6214577;23;20016;-71
2023/05/05 09:08:23;;;;;;;9.98;2.25;;;18.10;71.20;;;;;;6213454;23;20004;-71
2023/05/05 09:10:49;;;;;;;12.20;2.33;;;18.10;71.20;;;;;;6213591;23;20007;-71
2023/05/05 09:13:15;;;;;;;10.73;2.30;;;18.10;71.00;;;;;;6188596;23;20016;-71
2023/05/05 09:15:41;;;;;;;8.23;2.05;;;18.10;70.70;;;;;;6214670;23;20008;-70
2023/05/05 09:18:11;;;;;;;8.73;2.20;;;18.10;70.70;;;;;;6214870;23;20083;-70
2023/05/05 09:20:37;;;;;;;10.70;2.28;;;18.10;70.80;;;;;;6214736;23;19997;-70
2023/05/05 09:23:15;;;;;;;9.43;2.00;;;18.10;71.00;;;;;;6214931;23;20008;-70
2023/05/05 09:25:45;;;;;;;8.30;1.90;;;18.10;71.20;;;;;;6213496;23;20004;-71
2023/05/05 09:28:17;;;;;;;10.82;2.00;;;18.10;71.40;;;;;;6215142;23;20004;-70
2023/05/05 09:30:44;;;;;;;13.43;2.53;;;18.10;71.60;;;;;;6214563;23;20066;-71
2023/05/05 09:33:10;;;;;;;7.57;1.90;;;18.10;71.70;;;;;;6213462;23;20001;-71
2023/05/05 09:35:51;;;;;;;6.65;2.20;;;18.10;71.70;;;;;;6213425;23;20058;-71
2023/05/05 09:38:18;;;;;;;10.63;2.03;;;18.10;71.70;;;;;;6214911;23;20007;-71
2023/05/05 09:40:47;;;;;;;7.13;1.70;;;18.10;71.90;;;;;;6188668;23;20078;-71
2023/05/05 09:43:12;;;;;;;9.45;1.73;;;18.00;71.90;;;;;;6213335;23;20432;-71
2023/05/05 09:45:38;;;;;;;8.52;2.25;;;18.10;72.00;;;;;;6214486;23;20000;-71
2023/05/05 09:48:06;;;;;;;9.50;2.00;;;18.10;72.10;;;;;;6214719;23;20015;-71
2023/05/05 09:50:42;;;;;;;9.05;1.90;;;18.10;71.90;;;;;;6188285;23;20008;-71
2023/05/05 09:53:08;;;;;;;7.88;1.92;;;18.00;71.80;;;;;;6213405;23;20005;-71
2023/05/05 09:55:34;;;;;;;8.15;2.30;;;18.10;71.70;;;;;;6213282;23;20034;-71
2023/05/05 09:58:33;;;;;;;7.90;2.00;;;18.00;71.60;;;;;;6213411;23;19997;-70
2023/05/05 10:00:59;;;;;;;9.32;2.38;;;18.00;71.70;;;;;;6093164;23;20375;-70
2023/05/05 10:03:25;;;;;;;8.80;1.85;;;18.10;71.50;;;;;;6069799;23;20014;-70
2023/05/05 10:05:55;;;;;;;7.65;1.77;;;18.00;71.50;;;;;;6069340;23;20018;-70
2023/05/05 10:08:22;;;;;;;9.25;1.88;;;18.00;71.60;;;;;;6069857;23;20029;-70
2023/05/05 10:10:55;;;;;;;8.50;2.08;;;18.00;71.60;;;;;;6069642;23;20316;-70
2023/05/05 10:13:21;;;;;;;7.80;2.00;;;18.00;71.70;;;;;;6095817;23;20460;-70
2023/05/05 10:15:49;;;;;;;7.80;2.13;;;18.00;71.80;;;;;;6095326;23;20069;-70
2023/05/05 10:18:21;;;;;;;8.90;1.85;;;18.00;71.80;;;;;;6095525;23;20463;-70
2023/05/05 10:20:49;;;;;;;9.30;2.42;;;18.00;71.90;;;;;;6072489;23;20006;-70
2023/05/05 10:23:18;;;;;;;7.63;1.83;;;18.00;71.90;;;;;;6047896;23;20351;-70
2023/05/05 10:25:51;;;;;;;6.10;1.40;;;18.00;71.80;;;;;;6071693;23;20359;-70
2023/05/05 10:28:22;;;;;;;6.78;1.92;;;18.00;71.80;;;;;;6071954;23;20014;-70
2023/05/05 10:30:48;;;;;;;6.07;1.83;;;18.00;71.80;;;;;;6072088;23;20006;-70
2023/05/05 10:33:21;;;;;;;7.18;1.70;;;18.00;71.90;;;;;;6071578;23;20011;-70
2023/05/05 10:35:48;;;;;;;9.45;2.08;;;18.00;71.80;;;;;;6094631;23;20008;-70
2023/05/05 10:38:13;;;;;;;6.32;1.70;;;18.00;72.00;;;;;;6215018;23;20008;-70
2023/05/05 10:40:44;;;;;;;9.25;2.78;;;18.00;72.00;;;;;;6190085;23;20000;-70
2023/05/05 10:43:09;;;;;;;8.07;1.65;;;18.00;72.00;;;;;;6214775;23;20023;-70
2023/05/05 10:45:36;;;;;;;9.77;2.40;;;18.00;71.90;;;;;;6190192;23;20436;-70
2023/05/05 10:48:02;;;;;;;8.73;1.95;;;18.00;71.90;;;;;;6189796;23;20036;-70
2023/05/05 10:50:43;;;;;;;7.75;1.85;;;18.00;71.80;;;;;;6215278;23;20007;-70
2023/05/05 10:53:29;;;;;;;8.82;2.47;;;18.00;71.70;;;;;;6190572;23;20011;-70
2023/05/05 10:56:05;;;;;;;10.90;2.10;;;18.00;71.70;;;;;;6214786;23;20004;-70
2023/05/05 10:58:34;;;;;;;7.63;1.92;;;18.00;72.70;;;;;;6190264;23;20007;-70
2023/05/05 11:01:01;;;;;;;8.98;2.22;;;18.00;71.80;;;;;;6216258;23;20055;-70
2023/05/05 11:03:27;;;;;;;10.40;2.20;;;18.00;71.90;;;;;;6214919;23;19996;-70
2023/05/05 11:06:07;;;;;;;10.25;2.53;;;18.00;71.90;;;;;;6215957;23;20069;-70
2023/05/05 11:08:51;;;;;;;9.23;1.85;;;18.00;72.10;;;;;;6216127;23;20001;-70
2023/05/05 11:11:17;;;;;;;7.05;1.90;;;18.00;72.10;;;;;;6214824;23;20012;-70
2023/05/05 11:13:42;;;;;;;11.20;2.20;;;18.00;72.00;;;;;;6189522;23;20079;-70
2023/05/05 11:16:54;;;;;;;8.93;2.13;;;18.00;72.20;;;;;;6215900;23;20027;-70
2023/05/05 11:19:41;;;;;;;9.90;2.10;;;18.00;72.30;;;;;;6210669;23;20448;-70
2023/05/05 11:22:06;;;;;;;11.32;2.35;;;18.00;72.70;;;;;;6216123;23;20000;-70
2023/05/05 11:24:32;;;;;;;8.18;2.03;;;18.00;72.60;;;;;;6215668;23;20456;-70
2023/05/05 11:26:58;;;;;;;6.13;1.65;;;18.00;72.50;;;;;;6215698;23;20436;-70
2023/05/05 11:29:24;;;;;;;11.40;2.13;;;17.90;73.50;;;;;;6216102;23;20008;-70
2023/05/05 11:32:25;;;;;;;10.27;1.80;;;18.00;72.40;;;;;;6215933;23;20034;-70
2023/05/05 11:34:50;;;;;;;9.45;2.10;;;17.90;72.30;;;;;;6094647;23;20395;-70
2023/05/05 11:37:16;;;;;;;5.32;1.83;;;18.00;72.30;;;;;;6094972;23;20006;-70
2023/05/05 11:40:09;;;;;;;8.10;2.08;;;18.00;72.20;;;;;;6094858;23;20014;-70
2023/05/05 11:42:34;;;;;;;8.98;2.38;;;18.00;72.30;;;;;;6070514;23;20077;-70
2023/05/05 11:45:00;;;;;;;9.43;2.30;;;17.90;72.50;;;;;;6094762;23;20134;-70
2023/05/05 11:47:27;;;;;;;8.07;1.85;;;18.00;72.70;;;;;;6070839;23;20003;-70
2023/05/05 11:49:54;;;;;;;9.77;1.90;;;17.90;72.40;;;;;;6070619;23;20006;-70
2023/05/05 11:52:20;;;;;;;8.57;1.90;;;17.90;72.10;;;;;;6094912;23;20009;-70
2023/05/05 11:54:47;;;;;;;6.05;1.60;;;17.90;72.10;;;;;;6070693;23;20077;-70
2023/05/05 11:57:18;;;;;;;12.18;1.85;;;17.90;72.10;;;;;;6070587;23;20006;-70
2023/05/05 11:59:55;;;;;;;9.65;2.33;;;18.00;72.30;;;;;;6071563;23;20010;-70
2023/05/05 12:02:20;;;;;;;8.25;2.28;;;18.00;72.30;;;;;;6094612;23;20509;-70
2023/05/05 12:04:46;;;;;;;9.55;2.08;;;18.00;72.20;;;;;;6070401;23;20038;-70
2023/05/05 12:07:22;;;;;;;10.07;1.80;;;18.00;72.10;;;;;;6070582;23;20026;-70
2023/05/05 12:09:48;;;;;;;8.90;2.78;;;18.00;72.10;;;;;;6201337;23;20001;-70
2023/05/05 12:12:14;;;;;;;7.22;1.60;;;18.00;71.90;;;;;;6215674;23;20023;-70
2023/05/05 12:14:52;;;;;;;9.90;2.33;;;18.00;71.90;;;;;;6189272;23;20027;-70
2023/05/05 12:17:21;;;;;;;11.73;2.58;;;18.00;71.90;;;;;;6215551;23;20328;-70
2023/05/05 12:19:51;;;;;;;9.48;2.00;;;18.00;71.80;;;;;;6215445;23;20336;-70
2023/05/05 12:22:21;;;;;;;5.75;1.85;;;18.00;71.70;;;;;;6214110;23;20096;-70
2023/05/05 12:25:00;;;;;;;9.98;2.00;;;18.00;71.60;;;;;;6214054;23;20024;-70
2023/05/05 12:27:27;;;;;;;8.20;1.80;;;18.00;72.70;;;;;;6214199;23;20000;-70
2023/05/05 12:29:55;;;;;;;5.45;1.52;;;18.00;71.90;;;;;;6213822;23;20001;-70
2023/05/05 12:32:25;;;;;;;7.90;1.85;;;18.00;71.80;;;;;;6189670;23;20024;-70
2023/05/05 12:34:55;;;;;;;8.50;1.90;;;18.00;71.60;;;;;;6214992;23;20070;-70
2023/05/05 12:37:21;;;;;;;8.57;1.88;;;18.00;72.40;;;;;;6189881;23;19997;-70
2023/05/05 12:39:47;;;;;;;9.30;2.00;;;18.00;71.30;;;;;;6213879;23;20001;-70
2023/05/05 12:42:12;;;;;;;7.20;1.98;;;18.00;71.20;;;;;;6215344;23;20001;-70
2023/05/05 12:44:39;;;;;;;10.88;2.47;;;18.00;71.20;;;;;;6213670;23;20079;-70
2023/05/05 12:47:04;;;;;;;10.82;2.35;;;18.00;70.90;;;;;;6215284;23;20055;-70
2023/05/05 12:49:33;;;;;;;9.02;2.30;;;18.10;71.00;;;;;;6214043;23;20004;-70